Time;durP1;ratioP1;P1;durP2;ratioP2;P2;SDS_P1;SDS_P2;PMS_P1;PMS_P2;Temp;Humidity;BMP_temperature;BMP_pressure;BME280_temperature;BME280_humidity;BME280_pressure;Samples;Min_cycle;Max_cycle;Signal;HPM_P1;HPM_P2
2022/12/20 00:01:52;;;;;;;;;;;-1.90;99.90;;;;;;5034053;28;19917;-75
2022/12/20 00:04:18;;;;;;;;;;;-1.90;99.90;;;;;;5033080;28;19919;-76
2022/12/20 00:06:43;;;;;;;;;;;-1.90;99.90;;;;;;5032793;28;19951;-76
2022/12/20 00:09:10;;;;;;;;;;;-1.80;99.90;;;;;;5034086;28;20377;-76
2022/12/20 00:11:38;;;;;;;;;;;-1.80;99.90;;;;;;5033968;28;19959;-76
2022/12/20 00:14:03;;;;;;;;;;;-1.80;99.90;;;;;;5034137;28;19910;-76
2022/12/20 00:16:29;;;;;;;;;;;-1.80;99.90;;;;;;5032549;28;19919;-76
2022/12/20 00:18:56;;;;;;;;;;;-1.80;99.90;;;;;;5032326;28;19932;-76
2022/12/20 00:21:22;;;;;;;;;;;-1.70;99.90;;;;;;5034077;28;20042;-76
2022/12/20 00:23:47;;;;;;;;;;;-1.70;99.90;;;;;;5033960;28;20384;-76
2022/12/20 00:26:15;;;;;;;;;;;-1.70;99.90;;;;;;5033576;28;20360;-75
2022/12/20 00:28:40;;;;;;;;;;;-1.70;99.90;;;;;;5032681;28;20269;-75
2022/12/20 00:31:07;;;;;;;;;;;-1.80;99.90;;;;;;5033581;28;19915;-75
2022/12/20 00:33:33;;;;;;;;;;;-1.90;99.90;;;;;;5032354;28;20012;-75
2022/12/20 00:35:59;;;;;;;;;;;-1.90;99.90;;;;;;5033582;28;19945;-76
2022/12/20 00:38:25;;;;;;;;;;;-2.00;99.90;;;;;;5033844;28;19935;-76
2022/12/20 00:41:04;;;;;;;;;;;-2.00;99.90;;;;;;5033433;28;19913;-76
2022/12/20 00:43:30;;;;;;;;;;;-1.90;99.90;;;;;;5033481;28;19963;-76
2022/12/20 00:45:56;;;;;;;;;;;-1.90;99.90;;;;;;5032128;28;19964;-76
2022/12/20 00:48:21;;;;;;;;;;;-1.90;99.90;;;;;;5034520;28;19913;-75
2022/12/20 00:50:47;;;;;;;;;;;-1.80;99.90;;;;;;5037155;28;19963;-75
2022/12/20 00:53:13;;;;;;;;;;;-1.80;99.90;;;;;;5035958;28;19913;-76
2022/12/20 00:55:42;;;;;;;;;;;-1.80;99.90;;;;;;5037158;28;19916;-76
2022/12/20 00:58:08;;;;;;;;;;;-1.70;99.90;;;;;;5037456;28;19920;-76
2022/12/20 01:00:34;;;;;;;;;;;-1.70;99.90;;;;;;5037311;28;20341;-75
2022/12/20 01:02:59;;;;;;;;;;;-1.60;99.90;;;;;;5037046;28;19909;-75
2022/12/20 01:05:25;;;;;;;;;;;-1.60;99.90;;;;;;5037124;28;19913;-75
2022/12/20 01:07:51;;;;;;;;;;;-1.60;99.90;;;;;;5035709;28;20295;-75
2022/12/20 01:10:17;;;;;;;;;;;-1.70;99.90;;;;;;5036389;28;19956;-75
2022/12/20 01:12:43;;;;;;;;;;;-1.70;99.90;;;;;;5036843;28;19920;-76
2022/12/20 01:15:09;;;;;;;;;;;-1.70;99.90;;;;;;5036719;28;19909;-75
2022/12/20 01:17:35;;;;;;;;;;;-1.70;99.90;;;;;;5035668;28;19940;-76
2022/12/20 01:20:01;;;;;;;;;;;-1.70;99.90;;;;;;5035628;28;20343;-76
2022/12/20 01:22:26;;;;;;;;;;;-1.70;99.90;;;;;;5036620;28;20376;-76
2022/12/20 01:24:52;;;;;;;;;;;-1.70;99.90;;;;;;5035576;28;19913;-76
2022/12/20 01:27:17;;;;;;;;;;;-1.70;99.90;;;;;;5036566;28;19912;-76
2022/12/20 01:29:43;;;;;;;;;;;-1.70;99.90;;;;;;5036897;28;20296;-76
2022/12/20 01:32:08;;;;;;;;;;;-1.70;99.90;;;;;;5035289;28;19922;-76
2022/12/20 01:34:34;;;;;;;;;;;-1.70;99.90;;;;;;5035188;28;19913;-76
2022/12/20 01:36:59;;;;;;;;;;;-1.70;99.90;;;;;;5035237;28;19913;-76
2022/12/20 01:39:25;;;;;;;;;;;-1.70;99.90;;;;;;5036287;28;19913;-76
2022/12/20 01:41:51;;;;;;;;;;;-1.70;99.90;;;;;;5036587;28;19933;-76
2022/12/20 01:44:16;;;;;;;;;;;-1.70;99.90;;;;;;5036239;28;19913;-76
2022/12/20 01:46:42;;;;;;;;;;;-1.70;99.90;;;;;;5036137;28;19909;-75
2022/12/20 01:49:34;;;;;;;;;;;-1.80;99.90;;;;;;5036140;28;19913;-76
2022/12/20 01:52:04;;;;;;;;;;;-1.70;99.90;;;;;;5019641;28;19909;-76
2022/12/20 01:54:35;;;;;;;;;;;-1.80;99.90;;;;;;5036387;28;19909;-76
2022/12/20 01:57:13;;;;;;;;;;;-1.80;99.90;;;;;;5036027;28;19913;-76
2022/12/20 01:59:40;;;;;;;;;;;-1.80;99.90;;;;;;5034789;28;19909;-76
2022/12/20 02:02:08;;;;;;;;;;;-1.80;99.90;;;;;;5035495;28;19941;-76
2022/12/20 02:04:34;;;;;;;;;;;-1.80;99.90;;;;;;5034648;28;19909;-75
2022/12/20 02:07:00;;;;;;;;;;;-1.80;99.90;;;;;;5036249;28;19909;-75
2022/12/20 02:09:26;;;;;;;;;;;-1.80;99.90;;;;;;5035927;28;19914;-75
2022/12/20 02:11:55;;;;;;;;;;;-1.80;99.90;;;;;;5034973;28;19919;-75
2022/12/20 02:14:26;;;;;;;;;;;-1.90;99.90;;;;;;5034698;28;19913;-75
2022/12/20 02:16:58;;;;;;;;;;;-1.80;99.90;;;;;;5035725;28;19909;-75
2022/12/20 02:19:35;;;;;;;;;;;-1.80;99.90;;;;;;5060683;23;19924;-73
2022/12/20 02:22:15;;;;;;;;;;;-1.80;99.90;;;;;;5035177;28;19917;-73
2022/12/20 02:24:59;;;;;;;;;;;-1.80;99.90;;;;;;5035754;28;19913;-74
2022/12/20 02:27:29;;;;;;;;;;;-1.90;99.90;;;;;;5034215;28;20296;-74
2022/12/20 02:29:57;;;;;;;;;;;-1.90;99.90;;;;;;5035364;28;19916;-73
2022/12/20 02:32:25;;;;;;;;;;;-1.90;99.90;;;;;;5035355;28;20395;-74
2022/12/20 02:34:51;;;;;;;;;;;-1.90;99.90;;;;;;5035344;28;20047;-73
2022/12/20 02:37:17;;;;;;;;;;;-2.00;99.90;;;;;;5035579;28;19988;-74
2022/12/20 02:39:43;;;;;;;;;;;-1.90;99.90;;;;;;5035441;28;19916;-74
2022/12/20 02:42:10;;;;;;;;;;;-1.90;99.90;;;;;;5035262;28;19916;-74
2022/12/20 02:47:25;;;;;;;;;;;-1.90;99.90;;;;;;5035186;28;19916;-73
2022/12/20 02:49:52;;;;;;;;;;;-1.90;99.90;;;;;;5051435;28;20289;-73
2022/12/20 02:52:19;;;;;;;;;;;-1.90;99.90;;;;;;5034995;28;19916;-73
2022/12/20 02:54:45;;;;;;;;;;;-1.80;99.90;;;;;;5034895;28;20284;-73
2022/12/20 02:57:17;;;;;;;;;;;-1.80;99.90;;;;;;5034878;28;19913;-73
2022/12/20 02:59:48;;;;;;;;;;;-1.80;99.90;;;;;;5034989;28;19910;-73
2022/12/20 03:02:14;;;;;;;;;;;-1.80;99.90;;;;;;5035387;28;19948;-73
2022/12/20 03:04:40;;;;;;;;;;;-1.80;99.90;;;;;;5034975;28;20030;-73
2022/12/20 03:07:10;;;;;;;;;;;-1.80;99.90;;;;;;5034973;28;20319;-73
2022/12/20 03:09:38;;;;;;;;;;;-1.80;99.90;;;;;;5034566;28;20257;-73
2022/12/20 03:12:04;;;;;;;;;;;-1.80;99.90;;;;;;5034151;28;19948;-73
2022/12/20 03:14:30;;;;;;;;;;;-1.80;99.90;;;;;;5034568;28;19909;-73
2022/12/20 03:16:56;;;;;;;;;;;-1.80;99.90;;;;;;5034518;28;20323;-73
2022/12/20 03:19:21;;;;;;;;;;;-1.80;99.90;;;;;;5035232;28;19917;-73
2022/12/20 03:21:47;;;;;;;;;;;-1.80;99.90;;;;;;5034969;28;19909;-73
2022/12/20 03:24:13;;;;;;;;;;;-1.80;99.90;;;;;;5034322;28;19913;-73
2022/12/20 03:26:39;;;;;;;;;;;-1.70;99.90;;;;;;5034844;28;19921;-73
2022/12/20 03:29:04;;;;;;;;;;;-1.80;99.90;;;;;;5034266;28;19920;-73
2022/12/20 03:31:30;;;;;;;;;;;-1.80;99.90;;;;;;5034211;28;19913;-75
2022/12/20 03:33:55;;;;;;;;;;;-1.70;99.90;;;;;;5034233;28;19913;-73
2022/12/20 03:36:22;;;;;;;;;;;-1.70;99.90;;;;;;5034135;28;20369;-73
2022/12/20 03:38:49;;;;;;;;;;;-1.70;99.90;;;;;;5034199;28;19916;-73
2022/12/20 03:41:14;;;;;;;;;;;-1.80;99.90;;;;;;5034091;28;19919;-73
2022/12/20 03:43:40;;;;;;;;;;;-1.80;99.90;;;;;;5034357;28;20000;-73
2022/12/20 03:46:05;;;;;;;;;;;-1.80;99.90;;;;;;5033990;28;19970;-73
2022/12/20 03:48:31;;;;;;;;;;;-1.80;99.90;;;;;;5032779;28;19913;-74
2022/12/20 03:50:56;;;;;;;;;;;-1.80;99.90;;;;;;5033938;28;19913;-73
2022/12/20 03:53:22;;;;;;;;;;;-1.80;99.90;;;;;;5034223;28;19913;-73
2022/12/20 03:55:47;;;;;;;;;;;-1.80;99.90;;;;;;5033901;28;19919;-73
2022/12/20 03:58:13;;;;;;;;;;;-1.90;99.90;;;;;;5033844;28;20012;-74
2022/12/20 04:00:39;;;;;;;;;;;-1.90;99.90;;;;;;5033779;28;19948;-73
2022/12/20 04:03:04;;;;;;;;;;;-1.90;99.90;;;;;;5034135;28;19914;-75
2022/12/20 04:05:30;;;;;;;;;;;-1.90;99.90;;;;;;5033738;28;19924;-74
2022/12/20 04:07:55;;;;;;;;;;;-2.00;99.90;;;;;;5033785;28;19913;-74
2022/12/20 04:10:21;;;;;;;;;;;-2.00;99.90;;;;;;5034266;28;19967;-74
2022/12/20 04:12:46;;;;;;;;;;;-2.00;99.90;;;;;;5033740;28;19913;-75
2022/12/20 04:15:12;;;;;;;;;;;-2.00;99.90;;;;;;5033760;28;19913;-74
2022/12/20 04:17:37;;;;;;;;;;;-2.10;99.90;;;;;;5033978;28;19920;-74
2022/12/20 04:20:17;;;;;;;;;;;-2.20;99.90;;;;;;5033447;28;19917;-74
2022/12/20 04:22:44;;;;;;;;;;;-2.20;99.90;;;;;;5033078;28;19913;-75
2022/12/20 04:25:10;;;;;;;;;;;-2.20;99.90;;;;;;5038030;28;19921;-75
2022/12/20 04:27:35;;;;;;;;;;;-2.30;99.90;;;;;;5037697;28;20419;-75
2022/12/20 04:30:01;;;;;;;;;;;-2.30;99.90;;;;;;5037547;28;19917;-74
2022/12/20 04:32:26;;;;;;;;;;;-2.30;99.90;;;;;;5037813;28;19914;-74
2022/12/20 04:34:52;;;;;;;;;;;-2.30;99.90;;;;;;5036369;28;19920;-74
2022/12/20 04:37:17;;;;;;;;;;;-2.40;99.90;;;;;;5037760;28;20357;-74
2022/12/20 04:39:43;;;;;;;;;;;-2.40;99.90;;;;;;5036439;28;19913;-74
2022/12/20 04:42:08;;;;;;;;;;;-2.40;99.90;;;;;;5037312;28;19913;-75
2022/12/20 04:44:34;;;;;;;;;;;-2.40;99.90;;;;;;5037328;28;19913;-75
2022/12/20 04:47:00;;;;;;;;;;;-2.40;99.90;;;;;;5037003;28;19920;-74
2022/12/20 04:49:25;;;;;;;;;;;-2.40;99.90;;;;;;5036463;28;19913;-74
2022/12/20 04:51:51;;;;;;;;;;;-2.40;99.90;;;;;;5035824;28;19962;-74
2022/12/20 04:54:16;;;;;;;;;;;-2.40;99.90;;;;;;5037036;28;19920;-75
2022/12/20 04:56:42;;;;;;;;;;;-2.40;99.90;;;;;;5036074;28;19917;-74
2022/12/20 04:59:08;;;;;;;;;;;-2.50;99.90;;;;;;5035747;28;19913;-74
2022/12/20 05:01:33;;;;;;;;;;;-2.60;99.90;;;;;;5036895;28;20016;-75
2022/12/20 05:03:59;;;;;;;;;;;-2.60;99.90;;;;;;5035617;28;19948;-74
2022/12/20 05:06:25;;;;;;;;;;;-2.60;99.90;;;;;;5036807;28;19918;-74
2022/12/20 05:08:50;;;;;;;;;;;-2.60;99.90;;;;;;5036527;28;19963;-73
2022/12/20 05:11:16;;;;;;;;;;;-2.70;99.90;;;;;;5032549;28;19917;-74
2022/12/20 05:13:41;;;;;;;;;;;-2.60;99.90;;;;;;5035728;28;19924;-74
2022/12/20 05:16:07;;;;;;;;;;;-2.60;99.90;;;;;;5036564;28;19956;-74
2022/12/20 05:18:32;;;;;;;;;;;-2.60;99.90;;;;;;5036544;28;19910;-74
2022/12/20 05:26:32;;;;;;;;;;;-2.50;99.90;;;;;;5036801;28;19924;-74
2022/12/20 05:28:57;;;;;;;;;;;-2.50;99.90;;;;;;5036432;28;20273;-74
2022/12/20 05:31:23;;;;;;;;;;;-2.50;99.90;;;;;;5036368;28;19914;-74
2022/12/20 05:33:48;;;;;;;;;;;-2.60;99.90;;;;;;5036589;28;20388;-74
2022/12/20 05:36:14;;;;;;;;;;;-2.60;99.90;;;;;;5035208;28;20281;-74
2022/12/20 05:38:39;;;;;;;;;;;-2.60;99.90;;;;;;5036323;28;19909;-74
2022/12/20 05:41:05;;;;;;;;;;;-2.60;99.90;;;;;;5036050;28;20327;-74
2022/12/20 05:43:31;;;;;;;;;;;-2.60;99.90;;;;;;5036514;28;19909;-74
2022/12/20 05:45:56;;;;;;;;;;;-2.60;99.90;;;;;;5036215;28;19921;-73
2022/12/20 05:48:22;;;;;;;;;;;-2.50;99.90;;;;;;5036113;28;19917;-72
2022/12/20 05:50:48;;;;;;;;;;;-2.50;99.90;;;;;;5034881;28;20272;-73
2022/12/20 05:53:14;;;;;;;;;;;-2.50;99.90;;;;;;5034953;28;19909;-73
2022/12/20 05:55:44;;;;;;;;;;;-2.60;99.90;;;;;;5036611;28;19920;-73
2022/12/20 05:58:12;;;;;;;;;;;-2.60;99.90;;;;;;5036631;28;19967;-73
2022/12/20 06:00:39;;;;;;;;;;;-2.60;99.90;;;;;;5036007;28;19919;-73
2022/12/20 06:03:05;;;;;;;;;;;-2.60;99.90;;;;;;5034715;28;19909;-73
2022/12/20 06:05:31;;;;;;;;;;;-2.70;99.90;;;;;;5034655;28;19918;-73
2022/12/20 06:07:56;;;;;;;;;;;-2.70;99.90;;;;;;5035846;28;19952;-73
2022/12/20 06:10:22;;;;;;;;;;;-2.80;99.90;;;;;;5034518;28;19909;-73
2022/12/20 06:12:47;;;;;;;;;;;-2.80;99.90;;;;;;5035842;28;19917;-73
2022/12/20 06:15:14;;;;;;;;;;;-2.80;99.90;;;;;;5035757;28;19914;-73
2022/12/20 06:17:40;;;;;;;;;;;-2.80;99.90;;;;;;5035761;28;19913;-73
2022/12/20 06:20:05;;;;;;;;;;;-2.70;99.90;;;;;;5035475;28;19921;-73
2022/12/20 06:22:32;;;;;;;;;;;-2.70;99.90;;;;;;5035634;28;20367;-73
2022/12/20 06:24:57;;;;;;;;;;;-2.70;99.90;;;;;;5035480;28;19921;-73
2022/12/20 06:27:23;;;;;;;;;;;-2.70;99.90;;;;;;5034240;28;19920;-73
2022/12/20 06:29:53;;;;;;;;;;;-2.70;99.90;;;;;;5034100;28;19959;-73
2022/12/20 06:32:19;;;;;;;;;;;-2.70;99.90;;;;;;5035716;28;19913;-73
2022/12/20 06:34:44;;;;;;;;;;;-2.70;99.90;;;;;;5035365;28;19909;-73
2022/12/20 06:37:10;;;;;;;;;;;-2.70;99.90;;;;;;5035577;28;19910;-73
2022/12/20 06:39:35;;;;;;;;;;;-2.70;99.90;;;;;;5035240;28;20007;-73
2022/12/20 06:42:01;;;;;;;;;;;-2.70;99.90;;;;;;5035527;28;20388;-73
2022/12/20 06:44:26;;;;;;;;;;;-2.70;99.90;;;;;;5050415;28;20395;-73
2022/12/20 06:46:52;;;;;;;;;;;-2.60;99.90;;;;;;5034278;28;20309;-73
2022/12/20 06:49:17;;;;;;;;;;;-2.60;99.90;;;;;;5035248;28;20395;-73
2022/12/20 06:51:43;;;;;;;;;;;-2.60;99.90;;;;;;5034955;28;19913;-73
2022/12/20 06:54:09;;;;;;;;;;;-2.60;99.90;;;;;;5034942;28;19913;-73
2022/12/20 06:56:34;;;;;;;;;;;-2.60;99.90;;;;;;5034033;28;20416;-71
2022/12/20 06:59:00;;;;;;;;;;;-2.60;99.90;;;;;;5035428;28;19913;-73
2022/12/20 07:01:25;;;;;;;;;;;-2.60;99.90;;;;;;5034740;28;19913;-73
2022/12/20 07:03:51;;;;;;;;;;;-2.60;99.90;;;;;;5033592;28;19917;-73
2022/12/20 07:06:16;;;;;;;;;;;-2.50;99.90;;;;;;5034927;28;20399;-73
2022/12/20 07:08:42;;;;;;;;;;;-2.40;99.90;;;;;;5034611;28;20369;-74
2022/12/20 07:11:07;;;;;;;;;;;-2.40;99.90;;;;;;5033414;28;20385;-73
2022/12/20 07:13:33;;;;;;;;;;;-2.40;99.90;;;;;;5034880;28;19917;-73
2022/12/20 07:16:00;;;;;;;;;;;-2.40;99.90;;;;;;5034469;28;19909;-73
2022/12/20 07:18:26;;;;;;;;;;;-2.40;99.90;;;;;;5033610;28;19937;-72
2022/12/20 07:20:52;;;;;;;;;;;-2.40;99.90;;;;;;5030951;28;19925;-72
2022/12/20 07:23:17;;;;;;;;;;;-2.40;99.90;;;;;;5032449;28;19913;-72
2022/12/20 07:25:43;;;;;;;;;;;-2.40;99.90;;;;;;5032745;28;19988;-73
2022/12/20 07:28:09;;;;;;;;;;;-2.30;99.90;;;;;;5032786;28;19914;-73
2022/12/20 07:30:35;;;;;;;;;;;-2.40;99.90;;;;;;5032692;28;19913;-72
2022/12/20 07:33:01;;;;;;;;;;;-2.40;99.90;;;;;;5033023;28;19909;-73
2022/12/20 07:35:26;;;;;;;;;;;-2.40;99.90;;;;;;5034219;28;20292;-73
2022/12/20 07:37:52;;;;;;;;;;;-2.30;99.90;;;;;;5033021;28;19913;-74
2022/12/20 07:40:17;;;;;;;;;;;-2.30;99.90;;;;;;5032773;28;20288;-73
2022/12/20 07:42:43;;;;;;;;;;;-2.20;99.90;;;;;;5034076;28;20451;-73
2022/12/20 07:45:09;;;;;;;;;;;-2.20;99.90;;;;;;5032764;28;20012;-73
2022/12/20 07:47:34;;;;;;;;;;;-2.10;99.90;;;;;;5033261;28;19920;-73
2022/12/20 07:50:00;;;;;;;;;;;-2.00;99.90;;;;;;5033925;28;19913;-73
2022/12/20 07:52:27;;;;;;;;;;;-2.00;99.90;;;;;;5033983;28;19913;-73
2022/12/20 07:54:55;;;;;;;;;;;-2.00;99.90;;;;;;5033580;28;19909;-73
2022/12/20 07:57:31;;;;;;;;;;;-2.00;99.90;;;;;;5032138;28;19963;-73
2022/12/20 07:59:58;;;;;;;;;;;-1.90;99.90;;;;;;5033861;28;19916;-73
2022/12/20 08:02:45;;;;;;;;;;;-1.90;99.90;;;;;;5034141;28;19932;-71
2022/12/20 08:05:11;;;;;;;;;;;-1.90;99.90;;;;;;5033839;28;19920;-73
2022/12/20 08:07:37;;;;;;;;;;;-1.80;99.90;;;;;;5034365;28;19913;-73
2022/12/20 08:10:04;;;;;;;;;;;-1.70;99.90;;;;;;5034030;28;19935;-73
2022/12/20 08:12:30;;;;;;;;;;;-1.80;99.90;;;;;;5034032;28;19956;-73
2022/12/20 08:14:56;;;;;;;;;;;-1.70;99.90;;;;;;5032825;28;20240;-73
2022/12/20 08:17:22;;;;;;;;;;;-1.70;99.90;;;;;;5031842;28;20324;-73
2022/12/20 08:19:50;;;;;;;;;;;-1.60;99.90;;;;;;5034002;28;19932;-72
2022/12/20 08:22:16;;;;;;;;;;;-1.60;99.90;;;;;;5032640;28;19909;-71
2022/12/20 08:24:42;;;;;;;;;;;-1.50;99.90;;;;;;5033078;28;20431;-70
2022/12/20 08:27:07;;;;;;;;;;;-1.50;99.90;;;;;;5033630;28;19941;-70
2022/12/20 08:29:33;;;;;;;;;;;-1.50;99.90;;;;;;5032601;28;20007;-70
2022/12/20 08:31:58;;;;;;;;;;;-1.40;99.90;;;;;;5033567;28;19913;-69
2022/12/20 08:34:24;;;;;;;;;;;-1.30;99.90;;;;;;5033839;28;19914;-70
2022/12/20 08:36:49;;;;;;;;;;;-1.30;99.90;;;;;;5032380;28;19913;-69
2022/12/20 08:39:15;;;;;;;;;;;-1.30;99.90;;;;;;5033784;28;19963;-69
2022/12/20 08:41:40;;;;;;;;;;;-1.20;99.90;;;;;;5033406;28;20297;-70
2022/12/20 08:44:06;;;;;;;;;;;-1.10;99.90;;;;;;5033430;28;20342;-70
2022/12/20 08:46:32;;;;;;;;;;;-1.10;99.90;;;;;;5033359;28;19928;-69
2022/12/20 08:48:57;;;;;;;;;;;-1.00;99.90;;;;;;5033486;28;19999;-69
2022/12/20 08:51:23;;;;;;;;;;;-1.00;99.90;;;;;;5033328;28;19913;-70
2022/12/20 08:53:48;;;;;;;;;;;-0.90;99.90;;;;;;5033420;28;19940;-70
2022/12/20 08:56:16;;;;;;;;;;;-0.90;99.90;;;;;;5033311;28;20355;-69
2022/12/20 08:58:42;;;;;;;;;;;-0.80;99.90;;;;;;5032021;28;19916;-70
2022/12/20 09:01:09;;;;;;;;;;;-0.80;99.90;;;;;;5033286;28;19916;-69
2022/12/20 09:03:35;;;;;;;;;;;-0.80;99.90;;;;;;5033308;28;19998;-69
2022/12/20 09:06:05;;;;;;;;;;;-0.80;99.90;;;;;;5033288;28;19913;-70
2022/12/20 09:08:31;;;;;;;;;;;-0.70;99.90;;;;;;5033650;28;19909;-70
2022/12/20 09:11:23;;;;;;;;;;;-0.70;99.90;;;;;;5036834;28;19919;-70
2022/12/20 09:13:50;;;;;;;;;;;-0.60;99.90;;;;;;5051339;28;19909;-69
2022/12/20 09:16:17;;;;;;;;;;;-0.60;99.90;;;;;;5037043;28;19915;-71
2022/12/20 09:18:43;;;;;;;;;;;-0.50;99.90;;;;;;5036772;28;19909;-70
2022/12/20 09:21:09;;;;;;;;;;;-0.50;99.90;;;;;;5035290;28;19928;-69
2022/12/20 09:23:35;;;;;;;;;;;-0.50;99.90;;;;;;5018992;28;20000;-69
2022/12/20 09:26:02;;;;;;;;;;;-0.40;99.90;;;;;;5035381;28;20009;-70
2022/12/20 09:28:28;;;;;;;;;;;-0.40;99.90;;;;;;5036590;28;19913;-69
2022/12/20 09:31:01;;;;;;;;;;;-0.30;99.90;;;;;;5036580;28;20396;-70
2022/12/20 09:33:27;;;;;;;;;;;-0.20;99.90;;;;;;5036748;28;19992;-70
2022/12/20 09:35:53;;;;;;;;;;;-0.20;99.90;;;;;;5036468;28;20000;-70
2022/12/20 09:38:19;;;;;;;;;;;-0.10;99.90;;;;;;5036398;28;19916;-70
2022/12/20 09:40:46;;;;;;;;;;;0.00;99.90;;;;;;5036260;28;19913;-70
2022/12/20 09:43:13;;;;;;;;;;;0.00;99.90;;;;;;5035054;28;19967;-70
2022/12/20 09:45:39;;;;;;;;;;;0.10;99.90;;;;;;5036755;28;20008;-70
2022/12/20 09:48:07;;;;;;;;;;;0.20;99.90;;;;;;5036544;28;19948;-70
2022/12/20 09:50:42;;;;;;;;;;;0.20;99.90;;;;;;5036083;28;19909;-70
2022/12/20 09:53:08;;;;;;;;;;;0.20;99.90;;;;;;5036189;28;19909;-70
2022/12/20 09:55:38;;;;;;;;;;;0.20;99.90;;;;;;5036066;28;20325;-70
2022/12/20 09:58:22;;;;;;;;;;;0.30;99.90;;;;;;5036303;28;19909;-70
2022/12/20 10:00:48;;;;;;;;;;;0.30;99.90;;;;;;5035905;28;19960;-70
2022/12/20 10:03:19;;;;;;;;;;;0.40;99.90;;;;;;5036223;28;19909;-69
2022/12/20 10:05:53;;;;;;;;;;;0.40;99.90;;;;;;5036156;28;20372;-69
2022/12/20 10:08:24;;;;;;;;;;;0.50;99.90;;;;;;5035943;28;19909;-70
2022/12/20 10:10:58;;;;;;;;;;;0.50;99.90;;;;;;5035895;28;20372;-70
2022/12/20 10:13:42;;;;;;;;;;;0.50;99.90;;;;;;5036012;28;20100;-70
2022/12/20 10:16:28;;;;;;;;;;;0.60;99.90;;;;;;5035690;28;19956;-70
2022/12/20 10:18:53;;;;;;;;;;;0.60;99.90;;;;;;5035954;28;19910;-70
2022/12/20 10:21:36;;;;;;;;;;;0.60;99.90;;;;;;5033005;28;19971;-70
2022/12/20 10:24:04;;;;;;;;;;;0.60;99.90;;;;;;5036160;28;20001;-70
2022/12/20 10:26:32;;;;;;;;;;;0.70;99.90;;;;;;5035439;28;19949;-70
2022/12/20 10:28:57;;;;;;;;;;;0.70;99.90;;;;;;5034235;28;19916;-70
2022/12/20 10:31:24;;;;;;;;;;;0.70;99.90;;;;;;5035302;28;19961;-70
2022/12/20 10:33:49;;;;;;;;;;;0.70;99.90;;;;;;5035390;28;19917;-70
2022/12/20 10:36:35;;;;;;;;;;;0.80;99.90;;;;;;5035601;28;19920;-70
2022/12/20 10:39:09;;;;;;;;;;;0.80;99.90;;;;;;5035381;28;19915;-70
2022/12/20 10:41:44;;;;;;;;;;;0.80;99.90;;;;;;5035225;28;19916;-70
2022/12/20 10:44:19;;;;;;;;;;;0.90;99.90;;;;;;5035181;28;20000;-70
2022/12/20 10:46:46;;;;;;;;;;;0.90;99.90;;;;;;5035066;28;19913;-70
2022/12/20 10:49:31;;;;;;;;;;;1.00;99.90;;;;;;5035375;28;20384;-70
2022/12/20 10:52:01;;;;;;;;;;;1.00;99.90;;;;;;5035046;28;19910;-70
2022/12/20 10:54:36;;;;;;;;;;;1.10;99.90;;;;;;5033783;28;19954;-70
2022/12/20 10:57:11;;;;;;;;;;;1.10;99.90;;;;;;5035157;28;19956;-70
2022/12/20 10:59:38;;;;;;;;;;;1.20;99.90;;;;;;5034880;28;19909;-70
2022/12/20 11:02:23;;;;;;;;;;;1.30;99.90;;;;;;5035102;28;19958;-70
2022/12/20 11:05:01;;;;;;;;;;;1.40;99.90;;;;;;5034685;28;19996;-70
2022/12/20 11:07:28;;;;;;;;;;;1.50;99.90;;;;;;5034764;28;20005;-70
2022/12/20 11:09:54;;;;;;;;;;;1.50;99.90;;;;;;5034670;28;19913;-70
2022/12/20 11:12:20;;;;;;;;;;;1.60;99.90;;;;;;5034681;28;19909;-70
2022/12/20 11:14:46;;;;;;;;;;;1.60;99.90;;;;;;5034568;28;19924;-70
2022/12/20 11:17:11;;;;;;;;;;;1.70;99.90;;;;;;5034568;28;19913;-70
2022/12/20 11:19:56;;;;;;;;;;;1.70;99.90;;;;;;5034481;28;19984;-71
2022/12/20 11:22:21;;;;;;;;;;;1.70;99.90;;;;;;5034512;28;19916;-70
2022/12/20 11:24:50;;;;;;;;;;;1.70;99.90;;;;;;5034452;28;20281;-70
2022/12/20 11:27:39;;;;;;;;;;;1.70;99.90;;;;;;5033134;28;20388;-70
2022/12/20 11:30:04;;;;;;;;;;;1.70;99.90;;;;;;5033387;28;20361;-70
2022/12/20 11:32:34;;;;;;;;;;;1.70;99.90;;;;;;5032656;28;19909;-70
2022/12/20 11:35:18;;;;;;;;;;;1.70;99.90;;;;;;5034257;28;20381;-70
2022/12/20 11:38:02;;;;;;;;;;;1.70;99.90;;;;;;5034210;28;19909;-70
2022/12/20 11:40:30;;;;;;;;;;;1.80;99.90;;;;;;5034133;28;19955;-70
2022/12/20 11:43:01;;;;;;;;;;;1.80;99.90;;;;;;5034157;28;19909;-70
2022/12/20 11:45:33;;;;;;;;;;;1.90;99.90;;;;;;5033993;28;20429;-70
2022/12/20 11:48:17;;;;;;;;;;;1.90;99.90;;;;;;5033945;28;19909;-70
2022/12/20 11:51:01;;;;;;;;;;;2.00;99.90;;;;;;5035172;28;19909;-70
2022/12/20 11:53:38;;;;;;;;;;;2.10;99.90;;;;;;5034204;28;19909;-70
2022/12/20 11:56:08;;;;;;;;;;;2.10;99.90;;;;;;5033822;28;19913;-70
2022/12/20 11:58:37;;;;;;;;;;;2.10;99.90;;;;;;5033883;28;19909;-70
2022/12/20 12:01:05;;;;;;;;;;;2.10;99.90;;;;;;5033795;28;19936;-71
2022/12/20 12:03:34;;;;;;;;;;;2.20;99.90;;;;;;5033916;28;19909;-71
2022/12/20 12:06:06;;;;;;;;;;;2.30;99.90;;;;;;5033804;28;19920;-71
2022/12/20 12:08:44;;;;;;;;;;;2.30;99.90;;;;;;5033782;28;20000;-70
2022/12/20 12:11:14;;;;;;;;;;;2.40;99.90;;;;;;5033698;28;19909;-70
2022/12/20 12:13:41;;;;;;;;;;;2.40;99.90;;;;;;5033006;28;20285;-70
2022/12/20 12:16:07;;;;;;;;;;;2.50;99.90;;;;;;5033724;28;19913;-70
2022/12/20 12:18:33;;;;;;;;;;;2.50;99.90;;;;;;5033737;28;19909;-70
2022/12/20 12:21:04;;;;;;;;;;;2.50;99.90;;;;;;5033485;28;20007;-70
2022/12/20 12:23:41;;;;;;;;;;;2.50;99.90;;;;;;5033972;28;19945;-71
2022/12/20 12:26:25;;;;;;;;;;;2.50;99.90;;;;;;5033849;28;19971;-71
2022/12/20 12:29:01;;;;;;;;;;;2.50;99.90;;;;;;5033610;28;20288;-71
2022/12/20 12:31:33;;;;;;;;;;;2.50;99.90;;;;;;5033839;28;19913;-71
2022/12/20 12:34:13;;;;;;;;;;;2.50;99.90;;;;;;5033617;28;19972;-71
2022/12/20 12:36:54;;;;;;;;;;;2.60;99.90;;;;;;5032255;28;19994;-71
2022/12/20 12:39:39;;;;;;;;;;;2.60;99.90;;;;;;5033713;28;20000;-71
2022/12/20 12:42:10;;;;;;;;;;;2.70;99.90;;;;;;5032327;28;20392;-71
2022/12/20 12:44:48;;;;;;;;;;;2.60;99.90;;;;;;5035339;28;19909;-71
2022/12/20 12:47:44;;;;;;;;;;;2.70;99.90;;;;;;5037710;28;19956;-70
2022/12/20 12:50:36;;;;;;;;;;;2.70;99.90;;;;;;5036872;28;20284;-69
2022/12/20 12:53:07;;;;;;;;;;;2.70;99.90;;;;;;5036961;28;19913;-69
2022/12/20 12:55:34;;;;;;;;;;;2.60;99.90;;;;;;5037177;28;19909;-69
2022/12/20 12:58:12;;;;;;;;;;;2.60;99.90;;;;;;5037461;28;19909;-70
2022/12/20 13:00:49;;;;;;;;;;;2.60;99.90;;;;;;5037060;28;19909;-70
2022/12/20 13:03:16;;;;;;;;;;;2.50;99.90;;;;;;5037021;28;19910;-69
2022/12/20 13:05:42;;;;;;;;;;;2.50;99.90;;;;;;5037192;28;19923;-69
2022/12/20 13:08:15;;;;;;;;;;;2.50;99.90;;;;;;5037048;28;19945;-72
2022/12/20 13:10:40;;;;;;;;;;;2.50;99.90;;;;;;5036569;28;19914;-73
2022/12/20 13:13:19;;;;;;;;;;;2.50;99.90;;;;;;5025376;28;19996;-72
2022/12/20 13:15:46;;;;;;;;;;;2.50;99.90;;;;;;5037220;28;19909;-72
2022/12/20 13:18:11;;;;;;;;;;;2.50;99.90;;;;;;5035020;28;19962;-72
2022/12/20 13:20:37;;;;;;;;;;;2.50;99.90;;;;;;5035129;28;19917;-72
2022/12/20 13:23:12;;;;;;;;;;;2.60;99.90;;;;;;5036599;28;19913;-72
2022/12/20 13:25:37;;;;;;;;;;;2.50;99.90;;;;;;5035703;28;19924;-72
2022/12/20 13:28:26;;;;;;;;;;;2.60;99.90;;;;;;5036535;28;19909;-72
2022/12/20 13:31:00;;;;;;;;;;;2.60;99.90;;;;;;5048795;28;19913;-72
2022/12/20 13:33:38;;;;;;;;;;;2.50;99.90;;;;;;5035431;28;20000;-72
2022/12/20 13:36:24;;;;;;;;;;;2.50;99.90;;;;;;5036022;28;19982;-72
2022/12/20 13:38:51;;;;;;;;;;;2.50;99.90;;;;;;5036130;28;19917;-72
2022/12/20 13:41:20;;;;;;;;;;;2.40;99.90;;;;;;5036329;28;19909;-72
2022/12/20 13:43:46;;;;;;;;;;;2.40;99.90;;;;;;5036334;28;20427;-72
2022/12/20 13:46:12;;;;;;;;;;;2.40;99.90;;;;;;5036549;28;20384;-72
2022/12/20 13:48:46;;;;;;;;;;;2.40;99.90;;;;;;5036257;28;19910;-72
2022/12/20 13:51:23;;;;;;;;;;;2.40;99.90;;;;;;5036492;28;19920;-72
2022/12/20 13:53:55;;;;;;;;;;;2.40;99.90;;;;;;5036143;28;19916;-72
2022/12/20 13:56:27;;;;;;;;;;;2.50;99.90;;;;;;5036412;28;19967;-72
2022/12/20 13:58:54;;;;;;;;;;;2.50;99.90;;;;;;5036352;28;19916;-72
2022/12/20 14:01:21;;;;;;;;;;;2.40;99.90;;;;;;5035978;28;20277;-72
2022/12/20 14:03:47;;;;;;;;;;;2.50;99.90;;;;;;5035964;28;19913;-72
2022/12/20 14:06:13;;;;;;;;;;;2.50;99.90;;;;;;5035835;28;20327;-72
2022/12/20 14:08:46;;;;;;;;;;;2.60;99.90;;;;;;5034691;28;20358;-72
2022/12/20 14:11:21;;;;;;;;;;;2.60;99.90;;;;;;5035753;28;19952;-72
2022/12/20 14:13:54;;;;;;;;;;;2.60;99.90;;;;;;5035793;28;20407;-72
2022/12/20 14:16:21;;;;;;;;;;;2.60;99.90;;;;;;5034776;28;19909;-72
2022/12/20 14:18:48;;;;;;;;;;;2.60;99.90;;;;;;5035741;28;19923;-73
2022/12/20 14:21:14;;;;;;;;;;;2.50;99.90;;;;;;5043219;23;19925;-80
2022/12/20 14:23:40;;;;;;;;;;;2.50;99.90;;;;;;5037614;28;19913;-80
2022/12/20 14:26:09;;;;;;;;;;;2.60;99.90;;;;;;5037484;28;20280;-80
2022/12/20 14:28:39;;;;;;;;;;;2.50;99.90;;;;;;5037751;28;19956;-80
2022/12/20 14:31:06;;;;;;;;;;;2.50;99.90;;;;;;5036319;28;19909;-80
2022/12/20 14:33:39;;;;;;;;;;;2.50;99.90;;;;;;5037808;28;19909;-80
2022/12/20 14:36:07;;;;;;;;;;;2.50;99.90;;;;;;5052974;28;20063;-80
2022/12/20 14:38:33;;;;;;;;;;;2.50;99.90;;;;;;5036126;28;20272;-80